sensor_id;sensor_type;location;lat;lon;timestamp;temperature;humidity
24232;DHT22;12364;47.810;8.810;2023-06-14T03:45:12;18.80;53.00
24232;DHT22;12364;47.810;8.810;2023-06-14T03:47:39;18.90;53.30
24232;DHT22;12364;47.810;8.810;2023-06-14T03:50:06;18.90;53.00
24232;DHT22;12364;47.810;8.810;2023-06-14T03:52:33;18.90;52.80
24232;DHT22;12364;47.810;8.810;2023-06-14T03:55:00;19.00;52.90
24232;DHT22;12364;47.810;8.810;2023-06-14T03:57:30;18.90;53.00
24232;DHT22;12364;47.810;8.810;2023-06-14T03:59:57;18.90;53.00
24232;DHT22;12364;47.810;8.810;2023-06-14T04:02:24;18.80;52.90
24232;DHT22;12364;47.810;8.810;2023-06-14T04:04:51;18.70;53.00
24232;DHT22;12364;47.810;8.810;2023-06-14T04:07:21;18.80;53.10
24232;DHT22;12364;47.810;8.810;2023-06-14T04:09:48;18.80;53.20
24232;DHT22;12364;47.810;8.810;2023-06-14T04:12:15;18.80;53.20
24232;DHT22;12364;47.810;8.810;2023-06-14T04:14:42;18.80;53.40
24232;DHT22;12364;47.810;8.810;2023-06-14T04:17:09;18.80;53.30
24232;DHT22;12364;47.810;8.810;2023-06-14T04:19:37;18.90;53.50
24232;DHT22;12364;47.810;8.810;2023-06-14T04:22:04;19.00;53.50
24232;DHT22;12364;47.810;8.810;2023-06-14T04:24:31;19.10;53.80
24232;DHT22;12364;47.810;8.810;2023-06-14T04:26:59;19.10;54.00
24232;DHT22;12364;47.810;8.810;2023-06-14T04:29:28;19.30;54.10
24232;DHT22;12364;47.810;8.810;2023-06-14T04:31:56;19.10;53.70
24232;DHT22;12364;47.810;8.810;2023-06-14T04:34:26;19.10;53.70
24232;DHT22;12364;47.810;8.810;2023-06-14T04:36:56;19.00;53.90
24232;DHT22;12364;47.810;8.810;2023-06-14T04:39:24;19.00;54.30
24232;DHT22;12364;47.810;8.810;2023-06-14T04:41:52;19.00;54.50
24232;DHT22;12364;47.810;8.810;2023-06-14T04:44:19;18.90;54.70
24232;DHT22;12364;47.810;8.810;2023-06-14T04:46:47;18.90;54.80
24232;DHT22;12364;47.810;8.810;2023-06-14T04:49:14;19.00;54.90
24232;DHT22;12364;47.810;8.810;2023-06-14T04:51:42;19.00;54.70
24232;DHT22;12364;47.810;8.810;2023-06-14T04:54:09;19.10;54.90
24232;DHT22;12364;47.810;8.810;2023-06-14T04:56:41;19.10;54.50
24232;DHT22;12364;47.810;8.810;2023-06-14T04:59:09;19.10;53.90
24232;DHT22;12364;47.810;8.810;2023-06-14T05:01:38;19.10;54.20
24232;DHT22;12364;47.810;8.810;2023-06-14T05:04:05;19.10;54.60
24232;DHT22;12364;47.810;8.810;2023-06-14T05:06:32;19.10;54.50
24232;DHT22;12364;47.810;8.810;2023-06-14T05:08:59;19.10;54.50
24232;DHT22;12364;47.810;8.810;2023-06-14T05:11:27;19.20;53.70
24232;DHT22;12364;47.810;8.810;2023-06-14T05:13:54;19.10;54.10
24232;DHT22;12364;47.810;8.810;2023-06-14T05:16:21;19.20;54.00
24232;DHT22;12364;47.810;8.810;2023-06-14T05:18:52;19.30;54.60
24232;DHT22;12364;47.810;8.810;2023-06-14T05:21:19;19.30;54.70
24232;DHT22;12364;47.810;8.810;2023-06-14T05:23:46;19.40;54.90
24232;DHT22;12364;47.810;8.810;2023-06-14T05:26:13;19.50;55.20
24232;DHT22;12364;47.810;8.810;2023-06-14T05:28:40;19.50;54.40
24232;DHT22;12364;47.810;8.810;2023-06-14T05:31:07;19.50;54.40
24232;DHT22;12364;47.810;8.810;2023-06-14T05:33:34;19.50;54.70
24232;DHT22;12364;47.810;8.810;2023-06-14T05:36:02;19.50;54.30
24232;DHT22;12364;47.810;8.810;2023-06-14T05:38:29;19.50;54.00
24232;DHT22;12364;47.810;8.810;2023-06-14T05:40:56;19.60;54.70
24232;DHT22;12364;47.810;8.810;2023-06-14T05:43:23;19.60;54.10
24232;DHT22;12364;47.810;8.810;2023-06-14T05:45:50;19.60;54.30
24232;DHT22;12364;47.810;8.810;2023-06-14T05:48:17;19.60;53.90
24232;DHT22;12364;47.810;8.810;2023-06-14T05:50:44;19.60;53.90
24232;DHT22;12364;47.810;8.810;2023-06-14T05:53:11;19.60;54.40
24232;DHT22;12364;47.810;8.810;2023-06-14T05:55:38;19.60;54.30
24232;DHT22;12364;47.810;8.810;2023-06-14T05:58:07;19.60;54.50
24232;DHT22;12364;47.810;8.810;2023-06-14T06:00:34;19.70;54.70
24232;DHT22;12364;47.810;8.810;2023-06-14T06:03:02;19.80;54.90
24232;DHT22;12364;47.810;8.810;2023-06-14T06:05:29;19.80;55.00
24232;DHT22;12364;47.810;8.810;2023-06-14T06:07:56;20.00;55.60
24232;DHT22;12364;47.810;8.810;2023-06-14T06:10:23;20.10;55.20
24232;DHT22;12364;47.810;8.810;2023-06-14T06:12:50;20.10;56.40
24232;DHT22;12364;47.810;8.810;2023-06-14T06:15:18;20.20;55.40
24232;DHT22;12364;47.810;8.810;2023-06-14T06:17:46;20.30;55.20
24232;DHT22;12364;47.810;8.810;2023-06-14T06:20:23;20.30;54.90
24232;DHT22;12364;47.810;8.810;2023-06-14T06:22:56;20.40;55.10
24232;DHT22;12364;47.810;8.810;2023-06-14T06:25:23;20.50;55.20
24232;DHT22;12364;47.810;8.810;2023-06-14T06:27:53;20.60;55.90
24232;DHT22;12364;47.810;8.810;2023-06-14T06:30:20;20.70;54.60
24232;DHT22;12364;47.810;8.810;2023-06-14T06:32:47;20.70;54.70
24232;DHT22;12364;47.810;8.810;2023-06-14T06:35:14;20.70;54.50
24232;DHT22;12364;47.810;8.810;2023-06-14T06:37:42;20.80;54.80
24232;DHT22;12364;47.810;8.810;2023-06-14T06:40:09;20.80;55.10
24232;DHT22;12364;47.810;8.810;2023-06-14T06:42:37;20.90;56.00
24232;DHT22;12364;47.810;8.810;2023-06-14T06:45:04;20.90;56.10
24232;DHT22;12364;47.810;8.810;2023-06-14T06:47:32;21.00;56.90
24232;DHT22;12364;47.810;8.810;2023-06-14T06:49:59;21.10;56.20
24232;DHT22;12364;47.810;8.810;2023-06-14T06:52:26;21.10;56.10
24232;DHT22;12364;47.810;8.810;2023-06-14T06:54:53;21.20;55.50
24232;DHT22;12364;47.810;8.810;2023-06-14T06:57:22;21.30;54.90
24232;DHT22;12364;47.810;8.810;2023-06-14T06:59:51;21.30;54.80
24232;DHT22;12364;47.810;8.810;2023-06-14T07:02:18;21.40;55.70
24232;DHT22;12364;47.810;8.810;2023-06-14T07:04:45;21.40;55.30
24232;DHT22;12364;47.810;8.810;2023-06-14T07:07:13;21.50;55.20
24232;DHT22;12364;47.810;8.810;2023-06-14T07:09:40;21.50;53.80
24232;DHT22;12364;47.810;8.810;2023-06-14T07:12:08;21.60;54.70
24232;DHT22;12364;47.810;8.810;2023-06-14T07:14:35;21.70;53.90
24232;DHT22;12364;47.810;8.810;2023-06-14T07:17:02;21.70;54.40
24232;DHT22;12364;47.810;8.810;2023-06-14T07:19:29;21.70;53.50
24232;DHT22;12364;47.810;8.810;2023-06-14T07:21:57;21.80;54.10
24232;DHT22;12364;47.810;8.810;2023-06-14T07:24:25;21.90;54.60
24232;DHT22;12364;47.810;8.810;2023-06-14T07:26:52;21.90;53.70
24232;DHT22;12364;47.810;8.810;2023-06-14T07:29:19;22.00;53.00
24232;DHT22;12364;47.810;8.810;2023-06-14T07:31:47;22.10;52.30
24232;DHT22;12364;47.810;8.810;2023-06-14T07:34:14;22.10;53.20
24232;DHT22;12364;47.810;8.810;2023-06-14T07:36:41;22.10;53.10
24232;DHT22;12364;47.810;8.810;2023-06-14T07:39:11;22.10;52.30
24232;DHT22;12364;47.810;8.810;2023-06-14T07:41:38;22.20;51.30
24232;DHT22;12364;47.810;8.810;2023-06-14T07:44:05;22.10;52.00
24232;DHT22;12364;47.810;8.810;2023-06-14T07:46:32;22.20;52.90
24232;DHT22;12364;47.810;8.810;2023-06-14T07:49:01;22.20;52.70
24232;DHT22;12364;47.810;8.810;2023-06-14T07:51:28;22.20;52.40
24232;DHT22;12364;47.810;8.810;2023-06-14T07:53:55;22.30;52.40
24232;DHT22;12364;47.810;8.810;2023-06-14T07:56:23;22.30;52.70
24232;DHT22;12364;47.810;8.810;2023-06-14T07:58:50;22.40;52.30
24232;DHT22;12364;47.810;8.810;2023-06-14T08:01:17;22.50;52.30
24232;DHT22;12364;47.810;8.810;2023-06-14T08:03:46;22.50;52.80
24232;DHT22;12364;47.810;8.810;2023-06-14T08:06:14;22.60;53.10
24232;DHT22;12364;47.810;8.810;2023-06-14T08:08:42;22.50;52.70
24232;DHT22;12364;47.810;8.810;2023-06-14T08:11:09;22.60;53.10
24232;DHT22;12364;47.810;8.810;2023-06-14T08:13:36;22.70;52.70
24232;DHT22;12364;47.810;8.810;2023-06-14T08:16:03;22.70;52.40
24232;DHT22;12364;47.810;8.810;2023-06-14T08:18:31;22.70;51.60
24232;DHT22;12364;47.810;8.810;2023-06-14T08:20:58;22.80;52.20
24232;DHT22;12364;47.810;8.810;2023-06-14T08:23:26;22.90;52.10
24232;DHT22;12364;47.810;8.810;2023-06-14T08:25:53;22.90;51.80
24232;DHT22;12364;47.810;8.810;2023-06-14T08:28:20;23.00;52.00
24232;DHT22;12364;47.810;8.810;2023-06-14T08:30:48;22.90;50.80
24232;DHT22;12364;47.810;8.810;2023-06-14T08:33:15;23.00;51.10
24232;DHT22;12364;47.810;8.810;2023-06-14T08:35:43;23.00;50.80
24232;DHT22;12364;47.810;8.810;2023-06-14T08:38:10;23.10;50.30
24232;DHT22;12364;47.810;8.810;2023-06-14T08:40:38;23.00;50.50
24232;DHT22;12364;47.810;8.810;2023-06-14T08:43:07;23.10;50.90
24232;DHT22;12364;47.810;8.810;2023-06-14T08:45:34;23.20;49.20
24232;DHT22;12364;47.810;8.810;2023-06-14T08:48:01;23.20;49.00
24232;DHT22;12364;47.810;8.810;2023-06-14T08:50:29;23.20;49.00
24232;DHT22;12364;47.810;8.810;2023-06-14T08:53:01;23.10;48.90
24232;DHT22;12364;47.810;8.810;2023-06-14T08:55:30;23.10;48.40
24232;DHT22;12364;47.810;8.810;2023-06-14T08:58:02;23.20;48.40
24232;DHT22;12364;47.810;8.810;2023-06-14T09:00:30;23.20;48.60
24232;DHT22;12364;47.810;8.810;2023-06-14T09:02:59;23.20;48.20
24232;DHT22;12364;47.810;8.810;2023-06-14T09:05:27;23.20;48.70
24232;DHT22;12364;47.810;8.810;2023-06-14T09:07:54;23.20;48.70
24232;DHT22;12364;47.810;8.810;2023-06-14T09:10:22;23.30;48.70
24232;DHT22;12364;47.810;8.810;2023-06-14T09:12:51;23.30;49.20
24232;DHT22;12364;47.810;8.810;2023-06-14T09:15:18;23.40;48.30
24232;DHT22;12364;47.810;8.810;2023-06-14T09:17:45;23.50;48.20
24232;DHT22;12364;47.810;8.810;2023-06-14T09:20:12;23.50;47.80
24232;DHT22;12364;47.810;8.810;2023-06-14T09:22:46;23.50;48.40
24232;DHT22;12364;47.810;8.810;2023-06-14T09:25:13;23.50;48.30
24232;DHT22;12364;47.810;8.810;2023-06-14T09:27:55;23.60;49.10
24232;DHT22;12364;47.810;8.810;2023-06-14T09:30:22;23.60;48.40
24232;DHT22;12364;47.810;8.810;2023-06-14T09:32:49;23.60;47.90
24232;DHT22;12364;47.810;8.810;2023-06-14T09:35:17;23.60;47.90
24232;DHT22;12364;47.810;8.810;2023-06-14T09:37:44;23.60;47.70
24232;DHT22;12364;47.810;8.810;2023-06-14T09:40:11;23.70;48.50
24232;DHT22;12364;47.810;8.810;2023-06-14T09:42:39;23.70;47.80
24232;DHT22;12364;47.810;8.810;2023-06-14T09:45:07;23.80;48.70
24232;DHT22;12364;47.810;8.810;2023-06-14T09:47:35;23.80;48.00
24232;DHT22;12364;47.810;8.810;2023-06-14T09:50:03;23.80;48.30
24232;DHT22;12364;47.810;8.810;2023-06-14T09:52:30;23.80;47.40
24232;DHT22;12364;47.810;8.810;2023-06-14T09:54:58;23.80;48.00
24232;DHT22;12364;47.810;8.810;2023-06-14T09:57:26;23.80;49.10
24232;DHT22;12364;47.810;8.810;2023-06-14T09:59:56;23.90;47.10
24232;DHT22;12364;47.810;8.810;2023-06-14T10:02:26;24.00;47.60
24232;DHT22;12364;47.810;8.810;2023-06-14T10:04:58;24.00;47.10
24232;DHT22;12364;47.810;8.810;2023-06-14T10:07:27;24.00;47.30
24232;DHT22;12364;47.810;8.810;2023-06-14T10:09:57;24.10;47.40
24232;DHT22;12364;47.810;8.810;2023-06-14T10:12:24;24.20;47.50
24232;DHT22;12364;47.810;8.810;2023-06-14T10:14:51;24.10;47.40
24232;DHT22;12364;47.810;8.810;2023-06-14T10:17:27;24.10;47.90
24232;DHT22;12364;47.810;8.810;2023-06-14T10:22:46;24.20;47.80
24232;DHT22;12364;47.810;8.810;2023-06-14T10:25:25;24.20;47.40
24232;DHT22;12364;47.810;8.810;2023-06-14T10:27:53;24.20;47.10
24232;DHT22;12364;47.810;8.810;2023-06-14T10:30:24;24.20;47.30
24232;DHT22;12364;47.810;8.810;2023-06-14T10:35:48;24.30;46.40
24232;DHT22;12364;47.810;8.810;2023-06-14T10:38:15;24.40;46.50
24232;DHT22;12364;47.810;8.810;2023-06-14T10:40:56;24.40;46.40
24232;DHT22;12364;47.810;8.810;2023-06-14T10:43:24;24.40;46.40
24232;DHT22;12364;47.810;8.810;2023-06-14T10:48:40;24.40;46.40
24232;DHT22;12364;47.810;8.810;2023-06-14T10:51:17;24.40;46.30
24232;DHT22;12364;47.810;8.810;2023-06-14T10:53:48;24.50;46.40
24232;DHT22;12364;47.810;8.810;2023-06-14T10:56:30;24.50;46.30
24232;DHT22;12364;47.810;8.810;2023-06-14T10:58:57;24.50;46.40
24232;DHT22;12364;47.810;8.810;2023-06-14T11:04:15;24.70;47.70
24232;DHT22;12364;47.810;8.810;2023-06-14T11:06:49;24.70;46.20
24232;DHT22;12364;47.810;8.810;2023-06-14T11:11:46;24.80;46.30
24232;DHT22;12364;47.810;8.810;2023-06-14T11:14:14;24.80;46.10
24232;DHT22;12364;47.810;8.810;2023-06-14T11:16:41;24.80;46.30
24232;DHT22;12364;47.810;8.810;2023-06-14T11:19:08;24.90;46.10
24232;DHT22;12364;47.810;8.810;2023-06-14T11:21:39;24.90;46.30
24232;DHT22;12364;47.810;8.810;2023-06-14T11:24:09;25.00;46.00
24232;DHT22;12364;47.810;8.810;2023-06-14T11:26:38;25.00;46.30
24232;DHT22;12364;47.810;8.810;2023-06-14T11:29:05;25.10;46.90
24232;DHT22;12364;47.810;8.810;2023-06-14T11:31:32;25.10;46.40
24232;DHT22;12364;47.810;8.810;2023-06-14T11:33:59;25.10;46.00
24232;DHT22;12364;47.810;8.810;2023-06-14T11:36:30;25.10;45.50
24232;DHT22;12364;47.810;8.810;2023-06-14T11:39:07;25.20;46.10
24232;DHT22;12364;47.810;8.810;2023-06-14T11:41:37;25.20;46.60
24232;DHT22;12364;47.810;8.810;2023-06-14T11:44:05;25.30;45.50
24232;DHT22;12364;47.810;8.810;2023-06-14T11:46:33;25.30;45.50
24232;DHT22;12364;47.810;8.810;2023-06-14T11:49:00;25.30;45.90
24232;DHT22;12364;47.810;8.810;2023-06-14T11:51:30;25.40;45.50
24232;DHT22;12364;47.810;8.810;2023-06-14T11:53:58;25.40;46.00
24232;DHT22;12364;47.810;8.810;2023-06-14T11:56:25;25.50;46.00
24232;DHT22;12364;47.810;8.810;2023-06-14T11:58:53;25.50;46.80
24232;DHT22;12364;47.810;8.810;2023-06-14T12:01:23;25.60;46.60
24232;DHT22;12364;47.810;8.810;2023-06-14T12:03:50;25.60;46.60
24232;DHT22;12364;47.810;8.810;2023-06-14T12:06:25;25.60;46.70
24232;DHT22;12364;47.810;8.810;2023-06-14T12:08:55;25.70;46.70
24232;DHT22;12364;47.810;8.810;2023-06-14T12:11:22;25.70;46.70
24232;DHT22;12364;47.810;8.810;2023-06-14T12:13:49;25.70;46.60
24232;DHT22;12364;47.810;8.810;2023-06-14T12:16:17;25.70;46.20
24232;DHT22;12364;47.810;8.810;2023-06-14T12:18:44;25.70;45.90
24232;DHT22;12364;47.810;8.810;2023-06-14T12:21:12;25.70;46.50
24232;DHT22;12364;47.810;8.810;2023-06-14T12:23:43;25.80;46.20
24232;DHT22;12364;47.810;8.810;2023-06-14T12:26:16;25.80;45.70
24232;DHT22;12364;47.810;8.810;2023-06-14T12:28:44;25.70;45.30
24232;DHT22;12364;47.810;8.810;2023-06-14T12:31:12;25.70;45.80
24232;DHT22;12364;47.810;8.810;2023-06-14T12:33:42;25.80;46.40
24232;DHT22;12364;47.810;8.810;2023-06-14T12:36:09;25.80;47.10
24232;DHT22;12364;47.810;8.810;2023-06-14T12:38:37;25.80;46.00
24232;DHT22;12364;47.810;8.810;2023-06-14T12:41:04;25.90;46.30
24232;DHT22;12364;47.810;8.810;2023-06-14T12:43:31;26.00;46.60
24232;DHT22;12364;47.810;8.810;2023-06-14T12:45:58;26.10;47.10
24232;DHT22;12364;47.810;8.810;2023-06-14T12:48:26;26.10;46.40
24232;DHT22;12364;47.810;8.810;2023-06-14T12:50:58;26.20;45.80
24232;DHT22;12364;47.810;8.810;2023-06-14T12:53:25;26.20;46.60
24232;DHT22;12364;47.810;8.810;2023-06-14T12:55:52;26.30;46.50
24232;DHT22;12364;47.810;8.810;2023-06-14T12:58:19;26.40;46.80
24232;DHT22;12364;47.810;8.810;2023-06-14T13:00:47;26.40;46.50
24232;DHT22;12364;47.810;8.810;2023-06-14T13:03:14;26.40;46.50
24232;DHT22;12364;47.810;8.810;2023-06-14T13:05:42;26.40;46.10
24232;DHT22;12364;47.810;8.810;2023-06-14T13:08:09;26.40;46.30
24232;DHT22;12364;47.810;8.810;2023-06-14T13:10:37;26.40;46.50
24232;DHT22;12364;47.810;8.810;2023-06-14T13:13:04;26.40;46.20
24232;DHT22;12364;47.810;8.810;2023-06-14T13:15:31;26.40;47.00
24232;DHT22;12364;47.810;8.810;2023-06-14T13:17:58;26.50;46.20
24232;DHT22;12364;47.810;8.810;2023-06-14T13:20:25;26.50;46.00
24232;DHT22;12364;47.810;8.810;2023-06-14T13:22:52;26.50;46.70
24232;DHT22;12364;47.810;8.810;2023-06-14T13:25:19;26.60;46.30
24232;DHT22;12364;47.810;8.810;2023-06-14T13:27:46;26.60;47.10
24232;DHT22;12364;47.810;8.810;2023-06-14T13:30:13;26.70;46.60
24232;DHT22;12364;47.810;8.810;2023-06-14T13:32:41;26.70;46.70
24232;DHT22;12364;47.810;8.810;2023-06-14T13:35:08;26.70;46.40
24232;DHT22;12364;47.810;8.810;2023-06-14T13:37:35;26.80;46.40
24232;DHT22;12364;47.810;8.810;2023-06-14T13:40:02;26.80;45.50
24232;DHT22;12364;47.810;8.810;2023-06-14T13:42:30;26.80;45.80
24232;DHT22;12364;47.810;8.810;2023-06-14T13:44:59;26.80;46.00
24232;DHT22;12364;47.810;8.810;2023-06-14T13:47:26;26.80;46.60
24232;DHT22;12364;47.810;8.810;2023-06-14T13:50:10;26.70;46.90
24232;DHT22;12364;47.810;8.810;2023-06-14T13:52:37;26.60;46.80
24232;DHT22;12364;47.810;8.810;2023-06-14T13:55:04;26.60;46.20
24232;DHT22;12364;47.810;8.810;2023-06-14T13:57:32;26.60;46.50
24232;DHT22;12364;47.810;8.810;2023-06-14T13:59:59;26.60;46.30
24232;DHT22;12364;47.810;8.810;2023-06-14T14:02:30;26.60;47.20
24232;DHT22;12364;47.810;8.810;2023-06-14T14:04:57;26.70;47.60
24232;DHT22;12364;47.810;8.810;2023-06-14T14:07:24;26.70;48.60
24232;DHT22;12364;47.810;8.810;2023-06-14T14:10:09;26.80;47.00
24232;DHT22;12364;47.810;8.810;2023-06-14T14:12:54;26.90;47.80
24232;DHT22;12364;47.810;8.810;2023-06-14T14:15:39;26.90;47.30
24232;DHT22;12364;47.810;8.810;2023-06-14T14:18:06;26.90;46.60
24232;DHT22;12364;47.810;8.810;2023-06-14T14:20:34;26.80;46.40
24232;DHT22;12364;47.810;8.810;2023-06-14T14:23:18;26.80;46.50
24232;DHT22;12364;47.810;8.810;2023-06-14T14:25:47;26.70;46.30
24232;DHT22;12364;47.810;8.810;2023-06-14T14:28:32;26.70;47.20
24232;DHT22;12364;47.810;8.810;2023-06-14T14:31:00;26.70;46.90
24232;DHT22;12364;47.810;8.810;2023-06-14T14:33:28;26.70;46.80
24232;DHT22;12364;47.810;8.810;2023-06-14T14:35:54;26.70;47.00
24232;DHT22;12364;47.810;8.810;2023-06-14T14:38:21;26.70;46.80
24232;DHT22;12364;47.810;8.810;2023-06-14T14:40:49;26.80;46.90
24232;DHT22;12364;47.810;8.810;2023-06-14T14:43:16;26.80;48.60
24232;DHT22;12364;47.810;8.810;2023-06-14T14:45:43;26.80;46.70
24232;DHT22;12364;47.810;8.810;2023-06-14T14:48:10;26.90;46.10
24232;DHT22;12364;47.810;8.810;2023-06-14T14:50:37;26.90;47.60
24232;DHT22;12364;47.810;8.810;2023-06-14T14:53:04;26.90;47.00
24232;DHT22;12364;47.810;8.810;2023-06-14T14:55:32;26.90;46.20
24232;DHT22;12364;47.810;8.810;2023-06-14T14:58:01;26.90;47.00
24232;DHT22;12364;47.810;8.810;2023-06-14T15:00:29;26.90;46.90
24232;DHT22;12364;47.810;8.810;2023-06-14T15:02:56;26.90;47.30
24232;DHT22;12364;47.810;8.810;2023-06-14T15:05:23;26.90;47.00
24232;DHT22;12364;47.810;8.810;2023-06-14T15:07:51;26.80;47.20
24232;DHT22;12364;47.810;8.810;2023-06-14T15:10:18;26.90;46.70
24232;DHT22;12364;47.810;8.810;2023-06-14T15:12:45;26.90;47.10
24232;DHT22;12364;47.810;8.810;2023-06-14T15:15:12;26.90;46.80
24232;DHT22;12364;47.810;8.810;2023-06-14T15:17:39;26.90;46.40
24232;DHT22;12364;47.810;8.810;2023-06-14T15:20:06;26.90;46.80
24232;DHT22;12364;47.810;8.810;2023-06-14T15:22:33;26.90;46.30
24232;DHT22;12364;47.810;8.810;2023-06-14T15:25:00;26.90;46.80
24232;DHT22;12364;47.810;8.810;2023-06-14T15:27:28;26.90;47.20
24232;DHT22;12364;47.810;8.810;2023-06-14T15:29:55;26.90;47.00
24232;DHT22;12364;47.810;8.810;2023-06-14T15:32:22;26.90;47.80
24232;DHT22;12364;47.810;8.810;2023-06-14T15:34:49;26.90;48.10
24232;DHT22;12364;47.810;8.810;2023-06-14T15:37:16;27.00;46.50
24232;DHT22;12364;47.810;8.810;2023-06-14T15:39:43;27.00;46.70
24232;DHT22;12364;47.810;8.810;2023-06-14T15:42:10;27.00;47.00
24232;DHT22;12364;47.810;8.810;2023-06-14T15:44:38;27.00;48.00
24232;DHT22;12364;47.810;8.810;2023-06-14T15:47:05;27.00;46.40
24232;DHT22;12364;47.810;8.810;2023-06-14T15:49:32;27.00;46.50
24232;DHT22;12364;47.810;8.810;2023-06-14T15:51:59;27.00;46.50
24232;DHT22;12364;47.810;8.810;2023-06-14T15:54:27;27.00;47.00
24232;DHT22;12364;47.810;8.810;2023-06-14T15:56:54;26.90;47.70
24232;DHT22;12364;47.810;8.810;2023-06-14T15:59:22;26.90;47.90
24232;DHT22;12364;47.810;8.810;2023-06-14T16:01:49;26.90;46.50
24232;DHT22;12364;47.810;8.810;2023-06-14T16:04:16;26.80;46.50
24232;DHT22;12364;47.810;8.810;2023-06-14T16:06:43;26.80;47.40
24232;DHT22;12364;47.810;8.810;2023-06-14T16:09:10;26.80;46.60
24232;DHT22;12364;47.810;8.810;2023-06-14T16:11:37;26.80;46.90
24232;DHT22;12364;47.810;8.810;2023-06-14T16:14:04;26.70;47.30
24232;DHT22;12364;47.810;8.810;2023-06-14T16:16:31;26.70;47.40
24232;DHT22;12364;47.810;8.810;2023-06-14T16:18:59;26.80;47.10
24232;DHT22;12364;47.810;8.810;2023-06-14T16:21:26;26.80;46.40
24232;DHT22;12364;47.810;8.810;2023-06-14T16:23:53;26.80;45.80
24232;DHT22;12364;47.810;8.810;2023-06-14T16:26:20;26.80;46.20
24232;DHT22;12364;47.810;8.810;2023-06-14T16:28:47;26.80;46.20
24232;DHT22;12364;47.810;8.810;2023-06-14T16:31:14;26.90;46.90
24232;DHT22;12364;47.810;8.810;2023-06-14T16:33:43;27.00;46.30
24232;DHT22;12364;47.810;8.810;2023-06-14T16:36:10;27.00;46.40
24232;DHT22;12364;47.810;8.810;2023-06-14T16:38:37;26.90;46.40
24232;DHT22;12364;47.810;8.810;2023-06-14T16:41:04;26.80;46.10
24232;DHT22;12364;47.810;8.810;2023-06-14T16:43:31;26.90;46.20
24232;DHT22;12364;47.810;8.810;2023-06-14T16:45:58;26.90;46.20
24232;DHT22;12364;47.810;8.810;2023-06-14T16:48:25;26.90;46.90
24232;DHT22;12364;47.810;8.810;2023-06-14T16:50:52;26.80;45.70
24232;DHT22;12364;47.810;8.810;2023-06-14T16:53:20;26.80;46.20
24232;DHT22;12364;47.810;8.810;2023-06-14T16:55:47;26.80;46.40
24232;DHT22;12364;47.810;8.810;2023-06-14T16:58:14;26.90;46.20
24232;DHT22;12364;47.810;8.810;2023-06-14T17:00:41;26.90;46.90
24232;DHT22;12364;47.810;8.810;2023-06-14T17:03:08;26.90;45.80
24232;DHT22;12364;47.810;8.810;2023-06-14T17:05:35;26.80;46.50
24232;DHT22;12364;47.810;8.810;2023-06-14T17:08:02;26.80;46.60
24232;DHT22;12364;47.810;8.810;2023-06-14T17:10:30;26.80;46.90
24232;DHT22;12364;47.810;8.810;2023-06-14T17:12:57;26.80;47.30
24232;DHT22;12364;47.810;8.810;2023-06-14T17:15:24;26.80;46.80
24232;DHT22;12364;47.810;8.810;2023-06-14T17:17:51;26.80;46.90
24232;DHT22;12364;47.810;8.810;2023-06-14T17:20:18;26.80;47.30
24232;DHT22;12364;47.810;8.810;2023-06-14T17:22:47;26.80;47.30
24232;DHT22;12364;47.810;8.810;2023-06-14T17:25:14;26.80;47.80
24232;DHT22;12364;47.810;8.810;2023-06-14T17:27:41;26.80;46.90
24232;DHT22;12364;47.810;8.810;2023-06-14T17:30:08;26.80;46.50
24232;DHT22;12364;47.810;8.810;2023-06-14T17:32:35;26.80;46.60
24232;DHT22;12364;47.810;8.810;2023-06-14T17:35:02;26.80;46.30
24232;DHT22;12364;47.810;8.810;2023-06-14T17:37:30;26.90;46.20
24232;DHT22;12364;47.810;8.810;2023-06-14T17:39:57;26.90;46.10
24232;DHT22;12364;47.810;8.810;2023-06-14T17:42:24;26.90;46.00
24232;DHT22;12364;47.810;8.810;2023-06-14T17:44:51;26.90;45.80
24232;DHT22;12364;47.810;8.810;2023-06-14T17:47:22;26.90;46.80
24232;DHT22;12364;47.810;8.810;2023-06-14T17:50:02;26.90;47.20
24232;DHT22;12364;47.810;8.810;2023-06-14T17:52:29;26.90;47.00
24232;DHT22;12364;47.810;8.810;2023-06-14T17:54:57;26.90;47.30
24232;DHT22;12364;47.810;8.810;2023-06-14T17:57:24;26.80;47.60
24232;DHT22;12364;47.810;8.810;2023-06-14T17:59:51;26.80;47.60
24232;DHT22;12364;47.810;8.810;2023-06-14T18:02:18;26.70;48.00
24232;DHT22;12364;47.810;8.810;2023-06-14T18:04:45;26.60;48.00
24232;DHT22;12364;47.810;8.810;2023-06-14T18:07:12;26.60;48.30
24232;DHT22;12364;47.810;8.810;2023-06-14T18:09:39;26.60;48.40
24232;DHT22;12364;47.810;8.810;2023-06-14T18:12:06;26.50;48.50
24232;DHT22;12364;47.810;8.810;2023-06-14T18:14:36;26.50;48.80
24232;DHT22;12364;47.810;8.810;2023-06-14T18:17:03;26.40;48.90
24232;DHT22;12364;47.810;8.810;2023-06-14T18:19:30;26.40;48.90
24232;DHT22;12364;47.810;8.810;2023-06-14T18:21:57;26.40;49.10
24232;DHT22;12364;47.810;8.810;2023-06-14T18:24:24;26.40;49.10
24232;DHT22;12364;47.810;8.810;2023-06-14T18:26:51;26.40;49.10
24232;DHT22;12364;47.810;8.810;2023-06-14T18:29:19;26.40;49.10
24232;DHT22;12364;47.810;8.810;2023-06-14T18:31:46;26.40;49.20
24232;DHT22;12364;47.810;8.810;2023-06-14T18:34:13;26.30;49.00
24232;DHT22;12364;47.810;8.810;2023-06-14T18:36:40;26.30;49.10
24232;DHT22;12364;47.810;8.810;2023-06-14T18:39:07;26.30;49.20
24232;DHT22;12364;47.810;8.810;2023-06-14T18:41:36;26.20;49.30
24232;DHT22;12364;47.810;8.810;2023-06-14T18:44:03;26.20;49.30
24232;DHT22;12364;47.810;8.810;2023-06-14T18:46:30;26.20;49.20
24232;DHT22;12364;47.810;8.810;2023-06-14T18:48:57;26.10;49.40
24232;DHT22;12364;47.810;8.810;2023-06-14T18:51:24;26.10;49.40
24232;DHT22;12364;47.810;8.810;2023-06-14T18:53:51;26.10;49.20
24232;DHT22;12364;47.810;8.810;2023-06-14T18:56:19;26.00;49.30
24232;DHT22;12364;47.810;8.810;2023-06-14T18:58:46;25.90;49.50
24232;DHT22;12364;47.810;8.810;2023-06-14T19:01:13;25.90;49.60
24232;DHT22;12364;47.810;8.810;2023-06-14T19:03:40;25.90;49.70
24232;DHT22;12364;47.810;8.810;2023-06-14T19:06:08;25.80;49.70
24232;DHT22;12364;47.810;8.810;2023-06-14T19:08:34;25.80;49.80
24232;DHT22;12364;47.810;8.810;2023-06-14T19:11:02;25.70;49.70
24232;DHT22;12364;47.810;8.810;2023-06-14T19:13:29;25.70;50.00
24232;DHT22;12364;47.810;8.810;2023-06-14T19:15:57;25.60;50.10
24232;DHT22;12364;47.810;8.810;2023-06-14T19:18:24;25.60;50.20
24232;DHT22;12364;47.810;8.810;2023-06-14T19:20:52;25.50;50.10
24232;DHT22;12364;47.810;8.810;2023-06-14T19:23:19;25.50;50.00
24232;DHT22;12364;47.810;8.810;2023-06-14T19:25:48;25.50;50.30
24232;DHT22;12364;47.810;8.810;2023-06-14T19:28:16;25.40;50.20
24232;DHT22;12364;47.810;8.810;2023-06-14T19:30:43;25.40;50.30
24232;DHT22;12364;47.810;8.810;2023-06-14T19:33:10;25.30;50.20